Aérodrome :
LOGIN :

S'inscrire | Disclaimer

   EN    FR    IT 

 










Légende :    VFR   VFR Marginal   IFR   IFR Intensif   IFR Très Intensif
Visi : 
Plafond : 
>= 8 km
>= 3000ft
5 à 8 km
1000 à 3000 ft
1500m à 5 km
500 à 1000 ft
800 à 1500m
200 à 500 ft
< 800m
< 200 ft
Symboles :   Orages  Brouillard  Fortes neiges  Fortes précipitations  Vent > 20 kt
SIGMETs :   Divers  Orages  Givrage  Turbulence  Onde Orograph.  Cendres Volcan.






- Altitude de l'aérodrome : 1959 ft
- Code IATA : HOQ


EDQM - Hof Plauen

DERNIER METAR :
  • 201020Z 21013KT 8000 -RA BKN006 02/01 Q1020

METARs EXPIRÉS :
  • 200950Z 21013KT 9999 -SN BKN006 01/00 Q1019
  • 200920Z 21014KT 4500 -SN OVC005 01/00 Q1019
  • 200850Z 21010KT 9999 OVC005 01/00 Q1020
  • 200820Z 21009KT 9000 OVC005 01/M00 Q1020
  • 200750Z 21011KT 7000 -SN OVC006 01/M00 Q1020

TAF TAF EDQM
Valide du 20 à 09h jusqu'au 20 à 18h UTC


200800Z 2009/2018 21010KT 9999 OVC006
TEMPO 2009/2012 4000 -SN
BECMG 2013/2015 SCT008 BKN012
BECMG 2015/2017 OVC020



MET'MAP, la Météo Aéronautique d'un coup d'oeil ! - Copyright ORBIFLY Décembre 2007 - Disclaimer

ORBIFLY MET'MAP TEAM :

Programmation & Développement : Alexandra Zaïnal
Sur une idée originale de : Baudouin d'Aumeries
Assistance à la programmation : Marc-Olivier Méhu
Soutien technique & logistique : Manuel Goepfert

Contact : metmap@orbifly.com




SOURCES & CREDITS :

   NOAA